Flight Track Log - Related Links

Times and Time Zones

All times are in EDT time to prevent confusion due to time zone crossing. See the SWA2272 flight status page for this flight to view local times or setup timezone preferences in your user account.

Time Position Orientation Groundspeed Altitude Reporting Facility
EDT Latitude Longitude Course Direction KTS MPH feet Rate Location/Type
Thu 01:47:14 PM 34.1803 -118.3539 266° West 162 186 39,000  Level Los Angeles Center
Thu 01:48:16 PM 34.1772 -118.4133 266° West 233 268 4,000 -15,097 Descending Los Angeles Center
Thu 01:49:18 PM 34.2264 -118.4611 321° Northwest 228 262 7,800 3,524 Climbing Los Angeles Center
Thu 01:50:22 PM 34.2900 -118.4517 North 254 292 11,400 2,855 Climbing Los Angeles Center
Thu 01:51:22 PM 34.3589 -118.4058 29° Northeast 277 319 13,700 2,705 Climbing Los Angeles Center
Thu 01:52:24 PM 34.3939 -118.3011 68° East 348 400 16,900 2,855 Climbing Los Angeles Center
Thu 01:53:26 PM 34.4219 -118.1800 74° East 372 428 19,600 2,640 Climbing Los Angeles Center
Thu 01:54:29 PM 34.4642 -118.0522 68° East 399 459 22,400 2,928 Climbing Los Angeles Center
Thu 01:55:31 PM 34.5189 -117.8958 67° East 420 483 25,700 2,226 Climbing Los Angeles Center
Thu 01:56:33 PM 34.5650 -117.7619 67° East 430 495 27,000 1,161 Climbing Los Angeles Center
Thu 01:57:35 PM 34.6100 -117.6247 68° East 435 501 28,100 1,452 Climbing Los Angeles Center
Thu 01:58:37 PM 34.6572 -117.4869 67° East 441 507 30,000 1,839 Climbing Los Angeles Center
Thu 01:59:39 PM 34.7042 -117.3436 68° East 451 519 31,900 2,081 Climbing Los Angeles Center
Thu 02:00:41 PM 34.7636 -117.1711 67° East 463 533 34,300 1,935 Climbing Los Angeles Center
Thu 02:01:43 PM 34.8269 -117.0356 60° Northeast 466 536 35,900 1,645 Climbing Los Angeles Center
Thu 02:02:45 PM 34.9086 -116.9175 50° Northeast 464 534 37,700 1,632 Climbing Los Angeles Center
Thu 02:03:59 PM 34.9889 -116.8014 50° Northeast 454 522 39,600 1,445 Climbing Los Angeles Center
Thu 02:05:02 PM 35.0947 -116.6411 51° Northeast 437 503 41,000 672 Climbing Los Angeles Center
Thu 02:06:04 PM 35.1725 -116.5275 50° Northeast 438 504 41,000  Level Los Angeles Center
Thu 02:07:06 PM 35.2522 -116.4122 50° Northeast 443 510 41,000  Level Los Angeles Center
Thu 02:08:08 PM 35.3283 -116.2961 51° Northeast 438 504 41,000  Level Los Angeles Center
Thu 02:09:10 PM 35.4042 -116.1806 51° Northeast 437 503 41,000  Level Los Angeles Center
Thu 02:10:12 PM 35.4822 -116.0661 50° Northeast 436 502 41,000  Level Los Angeles Center
Thu 02:11:14 PM 35.5747 -115.9289 50° Northeast 434 499 41,000  Level Los Angeles Center
Thu 02:12:16 PM 35.6489 -115.8169 51° Northeast 429 494 41,000  Level Los Angeles Center
Thu 02:13:19 PM 35.7253 -115.7017 51° Northeast 433 498 41,000  Level Los Angeles Center
Thu 02:14:21 PM 35.8014 -115.5856 51° Northeast 435 501 41,000  Level Los Angeles Center
Thu 02:15:23 PM 35.8917 -115.4478 51° Northeast 434 499 41,000  Level Los Angeles Center
Thu 02:16:25 PM 35.9667 -115.3328 51° Northeast 433 498 41,000  Level Los Angeles Center
Thu 02:17:27 PM 36.0408 -115.2200 51° Northeast 427 491 41,000  Level Los Angeles Center
Thu 02:18:29 PM 36.1022 -115.0881 60° Northeast 444 511 41,000  Level Los Angeles Center
Thu 02:19:31 PM 36.1467 -114.9433 69° East 451 519 41,000  Level Los Angeles Center
Thu 02:20:33 PM 36.1994 -114.7683 69° East 453 521 41,000  Level Los Angeles Center
Thu 02:21:35 PM 36.2444 -114.6228 69° East 454 522 41,000  Level Los Angeles Center
Thu 02:22:38 PM 36.2892 -114.4758 69° East 456 525 41,000  Level Los Angeles Center
Thu 02:23:40 PM 36.3336 -114.3286 69° East 456 525 41,000  Level Los Angeles Center
Thu 02:24:42 PM 36.3778 -114.1800 70° East 458 527 41,000  Level Los Angeles Center
Thu 02:25:43 PM 36.4136 -114.0611 69° East 460 529 41,000  Level Los Angeles Center
Thu 02:26:46 PM 36.4744 -113.8533 70° East 459 528 41,000  Level Los Angeles Center
Thu 02:27:48 PM 36.5175 -113.7072 70° East 457 526 41,000  Level Los Angeles Center
Thu 02:28:50 PM 36.5608 -113.5611 70° East 454 522 41,000  Level Los Angeles Center
Thu 02:29:52 PM 36.6039 -113.4150 70° East 453 521 41,000  Level Los Angeles Center
Thu 02:30:54 PM 36.6464 -113.2692 70° East 451 519 41,000  Level Los Angeles Center
Thu 02:31:56 PM 36.6892 -113.1206 70° East 456 525 41,000  Level Los Angeles Center
Thu 02:32:59 PM 36.7411 -112.9433 70° East 456 525 41,000  Level Los Angeles Center
Thu 02:34:01 PM 36.7836 -112.7944 70° East 459 528 41,000  Level Los Angeles Center
Thu 02:35:03 PM 36.8261 -112.6444 70° East 461 531 41,000  Level Los Angeles Center
Thu 02:36:05 PM 36.8689 -112.4942 70° East 462 532 41,000  Level Los Angeles Center
Thu 02:37:07 PM 36.9197 -112.3142 70° East 463 533 41,000  Level Los Angeles Center
Thu 02:38:09 PM 36.9617 -112.1631 71° East 462 532 41,000  Level Los Angeles Center
Thu 02:38:42 PM 36.9886 -112.0711 70° East 465 535 41,000  Level Denver Center
Thu 02:39:44 PM 37.0308 -111.9197 71° East 464 534 41,000  Level Denver Center
Thu 02:40:46 PM 37.0736 -111.7681 70° East 465 535 41,000  Level Denver Center
Thu 02:41:48 PM 37.1147 -111.6161 71° East 464 534 41,000  Level Denver Center
Thu 02:42:50 PM 37.1533 -111.4683 72° East 456 525 41,000  Level Denver Center
Thu 02:43:52 PM 37.1931 -111.3189 72° East 454 522 41,000  Level Denver Center
Thu 02:45:05 PM 37.2422 -111.1406 71° East 452 520 41,000  Level Denver Center
Thu 02:46:08 PM 37.2900 -110.9606 72° East 454 522 41,000  Level Denver Center
Thu 02:47:09 PM 37.3297 -110.8117 71° East 453 521 41,000  Level Denver Center
Thu 02:48:11 PM 37.3689 -110.6619 72° East 452 520 41,000  Level Denver Center
Thu 02:49:13 PM 37.4078 -110.5136 72° East 449 517 41,000  Level Denver Center
Thu 02:50:15 PM 37.4461 -110.3644 72° East 449 517 41,000  Level Denver Center
Thu 02:51:16 PM 37.4906 -110.1914 72° East 449 517 41,000  Level Denver Center
Thu 02:52:18 PM 37.5289 -110.0475 71° East 452 520 41,000  Level Denver Center
Thu 02:53:20 PM 37.5731 -109.8756 72° East 460 529 41,000  Level Denver Center
Thu 02:54:22 PM 37.6100 -109.7269 73° East 463 533 41,000  Level Denver Center
Thu 02:55:24 PM 37.6531 -109.5561 72° East 458 527 41,000  Level Denver Center
Thu 02:56:25 PM 37.6903 -109.4075 72° East 462 532 41,000  Level Denver Center
Thu 02:57:27 PM 37.7272 -109.2594 72° East 461 531 41,000  Level Denver Center
Thu 02:58:29 PM 37.7708 -109.0847 72° East 466 536 41,000  Level Denver Center
Thu 02:59:31 PM 37.8075 -108.9350 73° East 466 536 41,000  Level Denver Center
Thu 03:00:32 PM 37.8417 -108.7569 76° East 466 536 41,000  Level Denver Center
Thu 03:01:34 PM 37.8714 -108.6042 76° East 467 537 41,000  Level Denver Center
Thu 03:02:36 PM 37.9056 -108.4222 77° East 473 544 41,000  Level Denver Center
Thu 03:03:38 PM 37.9344 -108.2692 76° East 470 541 41,000  Level Denver Center
Thu 03:04:39 PM 37.9636 -108.1139 77° East 472 543 41,000  Level Denver Center
Thu 03:05:53 PM 37.9964 -107.9328 77° East 475 547 41,000  Level Denver Center
Thu 03:06:55 PM 38.0347 -107.7272 77° East 468 539 41,000  Level Denver Center
Thu 03:07:57 PM 38.0631 -107.5725 77° East 472 543 41,000  Level Denver Center
Thu 03:08:59 PM 38.0933 -107.4033 77° East 472 543 41,000  Level Denver Center
Thu 03:10:01 PM 38.1208 -107.2486 77° East 470 541 41,000  Level Denver Center
Thu 03:11:02 PM 38.1536 -107.0669 77° East 469 540 41,000  Level Denver Center
Thu 03:12:04 PM 38.2161 -106.9322 59° Northeast 440 506 41,000  Level Denver Center
Thu 03:13:06 PM 38.2972 -106.8058 51° Northeast 434 499 41,000 -145 Level Denver Center
Thu 03:14:08 PM 38.3692 -106.6944 50° Northeast 434 499 40,700 -629 Descending Denver Center
Thu 03:15:10 PM 38.4464 -106.5747 51° Northeast 436 502 39,700 -927 Descending Denver Center
Thu 03:16:11 PM 38.5242 -106.4556 50° Northeast 439 505 38,800 -927 Descending Denver Center
Thu 03:17:13 PM 38.6008 -106.3361 51° Northeast 437 503 37,800 -1,016 Descending Denver Center
Thu 03:18:15 PM 38.6919 -106.1958 50° Northeast 430 495 36,700 -1,065 Descending Denver Center
Thu 03:19:17 PM 38.7628 -106.0847 51° Northeast 432 497 35,600 -2,323 Descending Denver Center
Thu 03:20:19 PM 38.8483 -105.9497 51° Northeast 435 501 31,900 -2,780 Descending Denver Center
Thu 03:21:20 PM 38.9189 -105.8400 50° Northeast 428 493 29,900 -2,244 Descending Denver Center
Thu 03:22:22 PM 38.9975 -105.7169 51° Northeast 410 472 27,300 -2,661 Descending Denver Center
Thu 03:23:24 PM 39.0611 -105.6169 51° Northeast 390 449 24,400 -3,073 Descending Denver Center
Thu 03:24:25 PM 39.1342 -105.5003 51° Northeast 379 436 21,000 -2,829 Descending Denver Center
Thu 03:25:27 PM 39.1969 -105.4036 50° Northeast 370 426 18,600 -1,355 Descending Denver Center
Thu 03:26:29 PM 39.2522 -105.3094 53° Northeast 297 342 18,200 -339 Descending Denver Center
Thu 03:27:31 PM 39.2775 -105.2089 72° East 296 341 17,900 -968 Descending Denver Center
Thu 03:28:33 PM 39.2986 -105.1008 76° East 309 356 16,200 -2,000 Descending Denver Center
Thu 03:29:34 PM 39.3553 -105.0072 52° Northeast 307 353 13,800 -1,561 Descending Denver Center
Thu 03:30:36 PM 39.4044 -104.9192 54° Northeast 301 346 13,000 -919 Descending Denver Center
Thu 03:31:38 PM 39.4569 -104.8319 52° Northeast 289 333 11,900 -1,113 Descending Denver Center
Thu 03:32:40 PM 39.5081 -104.7536 50° Northeast 288 331 10,700 -927 Descending Denver Center
Thu 03:33:41 PM 39.5750 -104.7036 30° Northeast 280 322 10,000 -829 Descending Denver Center
Thu 03:34:43 PM 39.6553 -104.6908 North 280 322 9,000 -871 Descending Denver Center
Thu 03:35:45 PM 39.7231 -104.6892 North 250 288 8,200 -1,016 Descending Denver Center
Thu 03:36:47 PM 39.7833 -104.6883 North 207 238 6,900 -1,024 Descending Denver Center
Thu 03:37:48 PM 39.8253 -104.6875 North 159 183 6,100 -780 Descending Denver Center
Thu 03:38:50 PM 39.8664 -104.6878 360° North 141 162 5,300 -774 Descending Denver Center
Thu 03:40:00 PM 39.8617 -104.6732 113° Southeast  Level Estimated
Thu 03:47:00 PM 39.8617 -104.6732 142° Southeast  Level Estimated
Thu 03:48:00 PM 39.8617 -104.6732 142° Southeast  Level Estimated
Thu 03:49:00 PM 39.8617 -104.6732 142° Southeast  Level Estimated

Login

Don't have an account? Register now (free) for customized features, flight alerts, and more!